Time;durP1;ratioP1;P1;durP2;ratioP2;P2;SDS_P1;SDS_P2;PMS_P1;PMS_P2;Temp;Humidity;BMP_temperature;BMP_pressure;BME280_temperature;BME280_humidity;BME280_pressure;Samples;Min_cycle;Max_cycle;Signal;HPM_P1;HPM_P2
2023/10/27 00:01:17;;;;;;;7.97;3.35;;;;;;;-143.21;69.84;71148.22;4959579;28;20586;-85
2023/10/27 00:03:43;;;;;;;9.50;3.60;;;;;;;-143.21;69.92;71154.16;4974839;28;20204;-85
2023/10/27 00:06:10;;;;;;;14.63;3.47;;;;;;;-143.21;69.82;71150.22;4972673;28;20233;-85
2023/10/27 00:08:37;;;;;;;7.80;3.20;;;;;;;-143.21;69.77;71166.06;4973607;28;20217;-85
2023/10/27 00:11:06;;;;;;;7.67;3.73;;;;;;;-143.21;69.95;71160.13;4974883;28;20730;-85
2023/10/27 00:13:33;;;;;;;7.43;3.30;;;;;;;-143.21;70.26;71174.00;4973143;28;20660;-85
2023/10/27 00:16:14;;;;;;;11.73;3.60;;;;;;;-143.21;70.31;71179.94;4973316;28;20204;-85
2023/10/27 00:18:43;;;;;;;9.43;3.70;;;;;;;-143.21;70.45;71195.81;4974284;28;20210;-85
2023/10/27 00:21:09;;;;;;;9.80;3.80;;;;;;;-143.21;70.71;71191.84;4972073;28;20227;-85
2023/10/27 00:23:36;;;;;;;12.30;4.27;;;;;;;-143.21;71.05;71199.78;4973417;28;20608;-85
2023/10/27 00:26:04;;;;;;;6.70;3.50;;;;;;;-143.21;70.95;71199.78;4974633;28;20216;-84
2023/10/27 00:28:31;;;;;;;7.03;3.67;;;;;;;-143.21;71.48;71215.63;4972721;28;20209;-85
2023/10/27 00:30:59;;;;;;;9.27;3.87;;;;;;;-143.21;71.97;71225.53;4972078;28;20236;-84
2023/10/27 00:33:26;;;;;;;10.83;4.00;;;;;;;-143.21;72.55;71243.38;4974547;28;20188;-86
2023/10/27 00:35:55;;;;;;;6.80;3.70;;;;;;;-143.21;72.96;71231.50;4972634;28;20197;-85
2023/10/27 00:38:22;;;;;;;8.63;3.37;;;;;;;-143.21;73.09;71231.50;4972053;28;20212;-85
2023/10/27 00:40:49;;;;;;;10.83;3.87;;;;;;;-143.21;73.27;71237.44;4955137;28;20209;-84
2023/10/27 00:43:18;;;;;;;9.30;3.93;;;;;;;-143.21;73.31;71229.50;4973087;28;20284;-84
2023/10/27 00:45:48;;;;;;;6.37;3.43;;;;;;;-143.21;73.08;71231.50;4973061;28;20219;-84
2023/10/27 00:48:16;;;;;;;11.47;3.73;;;;;;;-143.21;73.31;71233.47;4974011;28;20656;-85
2023/10/27 00:50:43;;;;;;;9.80;3.80;;;;;;;-143.21;73.60;71239.41;4972836;28;20189;-85
2023/10/27 00:53:12;;;;;;;12.20;4.03;;;;;;;-143.21;73.70;71237.44;4972882;28;20209;-85
2023/10/27 00:55:40;;;;;;;8.83;3.77;;;;;;;-143.21;73.70;71247.34;4973255;28;20624;-85
2023/10/27 00:58:09;;;;;;;8.37;3.50;;;;;;;-143.21;73.60;71257.25;4973035;28;20665;-85
2023/10/27 01:00:36;;;;;;;10.17;3.77;;;;;;;-143.21;73.70;71259.25;4972893;28;20232;-85
2023/10/27 01:03:04;;;;;;;10.50;3.73;;;;;;;-143.21;73.78;71267.19;4972931;28;20201;-83
2023/10/27 01:05:31;;;;;;;16.63;4.23;;;;;;;-143.21;73.66;71271.13;4972454;28;20228;-83
2023/10/27 01:07:59;;;;;;;13.60;4.10;;;;;;;-143.21;73.77;71265.19;4972190;28;20216;-83
2023/10/27 01:10:28;;;;;;;9.63;4.13;;;;;;;-143.21;73.69;71277.09;4957633;28;20205;-83
2023/10/27 01:12:58;;;;;;;8.43;3.90;;;;;;;-143.21;73.61;71265.19;4973698;28;20270;-84
2023/10/27 01:15:24;;;;;;;19.13;4.67;;;;;;;-143.21;73.78;71275.09;4972425;28;20291;-82
2023/10/27 01:17:51;;;;;;;10.50;4.03;;;;;;;-143.21;74.12;71285.03;4972284;28;20707;-83
2023/10/27 01:20:18;;;;;;;10.13;4.30;;;;;;;-143.21;74.26;71277.09;4973914;28;20592;-84
2023/10/27 01:22:47;;;;;;;9.47;3.60;;;;;;;-143.21;75.01;71304.84;4963306;28;20633;-84
2023/10/27 01:25:14;;;;;;;10.83;3.83;;;;;;;-143.21;75.33;71314.75;4955785;28;20681;-85
2023/10/27 01:27:42;;;;;;;9.17;3.90;;;;;;;-143.21;75.37;71308.81;4972639;28;20208;-84
2023/10/27 01:30:09;;;;;;;15.17;4.13;;;;;;;-143.21;75.51;71306.81;4970187;28;20236;-84
2023/10/27 01:32:36;;;;;;;14.67;4.10;;;;;;;-143.21;75.69;71304.84;4971011;28;20205;-84
2023/10/27 01:35:04;;;;;;;9.70;4.10;;;;;;;-143.21;75.41;71306.81;4973455;28;20200;-85
2023/10/27 01:37:50;;;;;;;8.70;4.30;;;;;;;-143.21;75.50;71312.78;4971356;28;20203;-84
2023/10/27 01:40:17;;;;;;;9.63;3.97;;;;;;;-143.21;75.50;71312.78;4971298;28;20239;-84
2023/10/27 01:42:44;;;;;;;6.43;3.67;;;;;;;-143.21;75.54;71314.75;4973486;28;20204;-85
2023/10/27 01:45:11;;;;;;;14.03;4.37;;;;;;;-143.21;75.60;71308.81;4971830;28;20275;-85
2023/10/27 01:47:38;;;;;;;12.33;4.40;;;;;;;-143.21;75.88;71316.75;4971577;28;20217;-85
2023/10/27 01:50:06;;;;;;;6.73;3.67;;;;;;;-143.21;75.56;71320.69;4973183;28;20231;-85
2023/10/27 01:52:32;;;;;;;11.13;4.20;;;;;;;-143.21;75.51;71308.81;4971802;28;20209;-85
2023/10/27 01:55:01;;;;;;;11.90;4.17;;;;;;;-143.21;75.84;71304.84;4971429;28;20201;-85
2023/10/27 01:57:28;;;;;;;11.63;4.23;;;;;;;-143.21;75.78;71296.91;4973370;28;20232;-85
2023/10/27 01:59:55;;;;;;;15.43;4.43;;;;;;;-143.21;75.98;71312.78;4971953;28;20211;-85
2023/10/27 02:02:21;;;;;;;11.53;4.37;;;;;;;-143.21;76.34;71306.81;4968197;28;20220;-85
2023/10/27 02:04:48;;;;;;;13.70;4.70;;;;;;;-143.21;76.51;71300.88;4972776;28;20662;-84
2023/10/27 02:07:15;;;;;;;13.97;4.40;;;;;;;-143.21;76.02;71300.88;4971580;28;20207;-84
2023/10/27 02:09:42;;;;;;;12.17;4.87;;;;;;;-143.21;76.09;71306.81;4963614;28;20233;-83
2023/10/27 02:12:11;;;;;;;13.63;4.97;;;;;;;-143.21;76.02;71304.84;4953482;29;20256;-84
2023/10/27 02:14:38;;;;;;;11.63;4.40;;;;;;;-143.21;76.73;71318.72;4969346;28;20592;-84
2023/10/27 02:17:06;;;;;;;8.87;4.60;;;;;;;-143.21;76.68;71316.75;4969722;28;20211;-83
2023/10/27 02:19:33;;;;;;;10.60;4.13;;;;;;;-143.21;76.77;71312.78;4972581;28;20193;-83
2023/10/27 02:21:59;;;;;;;9.80;4.63;;;;;;;-143.21;77.24;71316.75;4971112;28;20204;-83
2023/10/27 02:24:26;;;;;;;10.83;4.73;;;;;;;-143.21;77.06;71320.69;4970332;28;20296;-83
2023/10/27 02:26:53;;;;;;;10.47;4.33;;;;;;;-143.21;77.16;71312.78;4972709;28;20232;-84
2023/10/27 02:29:21;;;;;;;10.17;4.97;;;;;;;-143.21;77.34;71308.81;4970508;28;20598;-84
2023/10/27 02:31:48;;;;;;;13.80;4.43;;;;;;;-143.21;77.09;71308.81;4971059;28;20197;-83
2023/10/27 02:34:15;;;;;;;14.30;4.77;;;;;;;-143.21;77.16;71306.81;4972713;28;20200;-83
2023/10/27 02:36:42;;;;;;;12.27;5.00;;;;;;;-143.21;77.41;71310.78;4957501;28;20209;-83
2023/10/27 02:39:08;;;;;;;11.43;4.23;;;;;;;-143.21;77.71;71310.78;4959753;28;20691;-83
2023/10/27 02:41:40;;;;;;;10.37;4.60;;;;;;;-143.21;77.79;71314.75;4972820;28;20200;-83
2023/10/27 02:44:08;;;;;;;16.23;4.60;;;;;;;-143.21;77.82;71314.75;4970856;28;20208;-83
2023/10/27 02:46:37;;;;;;;13.07;4.70;;;;;;;-143.21;78.09;71302.84;4970637;28;20287;-83
2023/10/27 02:49:04;;;;;;;14.00;5.10;;;;;;;-143.21;77.67;71302.84;4972429;28;20228;-83
2023/10/27 02:51:31;;;;;;;9.43;4.83;;;;;;;-143.21;77.93;71314.75;4970745;28;20256;-83
2023/10/27 02:53:58;;;;;;;11.37;4.87;;;;;;;-143.21;78.37;71312.78;4964935;28;20213;-82
2023/10/27 02:56:25;;;;;;;14.10;5.30;;;;;;;-143.21;79.15;71336.56;4956523;28;20197;-82
2023/10/27 02:58:52;;;;;;;12.70;5.27;;;;;;;-143.21;79.26;71336.56;4972965;28;20209;-81
2023/10/27 03:01:19;;;;;;;15.13;5.33;;;;;;;-143.21;78.85;71316.75;4974251;28;20205;-81
2023/10/27 03:03:49;;;;;;;11.33;4.97;;;;;;;-143.21;78.81;71312.78;4975872;28;20197;-81
2023/10/27 03:06:16;;;;;;;9.97;5.40;;;;;;;-143.21;78.82;71306.81;4974517;28;20243;-82
2023/10/27 03:08:43;;;;;;;13.57;5.20;;;;;;;-143.21;78.28;71308.81;4970581;28;20542;-81
2023/10/27 03:11:10;;;;;;;14.53;5.40;;;;;;;-143.21;77.92;71290.97;4956829;28;20192;-82
2023/10/27 03:13:37;;;;;;;15.20;5.30;;;;;;;-143.21;78.11;71288.97;4974737;28;20271;-82
2023/10/27 03:16:05;;;;;;;14.37;5.53;;;;;;;-143.21;77.98;71285.03;4974382;28;20272;-81
2023/10/27 03:18:38;;;;;;;15.93;5.27;;;;;;;-143.21;77.61;71273.13;4975608;28;20674;-81
2023/10/27 03:21:07;;;;;;;11.33;5.03;;;;;;;-143.21;78.00;71292.94;4974694;28;20200;-82
2023/10/27 03:23:33;;;;;;;11.57;4.87;;;;;;;-143.21;78.48;71300.88;4973393;28;20208;-81
2023/10/27 03:26:00;;;;;;;19.37;5.60;;;;;;;-143.21;78.38;71296.91;4974400;28;20228;-82
2023/10/27 03:28:27;;;;;;;17.07;5.70;;;;;;;-143.21;78.16;71279.06;4974587;28;20217;-82
2023/10/27 03:30:54;;;;;;;10.77;5.20;;;;;;;-143.21;78.16;71306.81;4974185;28;20678;-82
2023/10/27 03:33:21;;;;;;;13.80;5.13;;;;;;;-143.21;78.19;71300.88;4975674;28;20196;-82
2023/10/27 03:35:48;;;;;;;11.90;5.27;;;;;;;-143.21;78.46;71294.94;4974671;28;20197;-84
2023/10/27 03:38:17;;;;;;;11.87;5.07;;;;;;;-143.21;78.64;71308.81;4974258;28;20201;-83
2023/10/27 03:40:47;;;;;;;15.90;6.30;;;;;;;-143.21;78.82;71304.84;4974713;28;20255;-83
2023/10/27 03:43:14;;;;;;;17.63;5.80;;;;;;;-143.21;78.61;71290.97;4974552;28;20604;-83
2023/10/27 03:45:41;;;;;;;11.93;5.73;;;;;;;-143.21;79.50;71308.81;4973327;28;20208;-82
2023/10/27 03:48:08;;;;;;;15.93;5.67;;;;;;;-143.21;79.00;71306.81;4973937;28;20209;-83
2023/10/27 03:50:36;;;;;;;17.33;5.63;;;;;;;-143.21;79.00;71306.81;4974327;28;20224;-83
2023/10/27 03:53:03;;;;;;;14.07;5.73;;;;;;;-143.21;78.95;71304.84;4973168;28;20200;-83
2023/10/27 03:55:41;;;;;;;12.60;5.40;;;;;;;-143.21;79.04;71294.94;4973843;28;20291;-83
2023/10/27 03:58:14;;;;;;;19.73;6.00;;;;;;;-143.21;79.59;71306.81;4974670;28;20201;-82
2023/10/27 04:00:41;;;;;;;10.93;5.00;;;;;;;-143.21;79.89;71310.78;4973217;28;20201;-82
2023/10/27 04:03:09;;;;;;;17.87;5.47;;;;;;;-143.21;79.89;71300.88;4971734;28;20227;-83
2023/10/27 04:05:36;;;;;;;11.80;5.33;;;;;;;-143.21;79.43;71292.94;4973999;28;20671;-84
2023/10/27 04:08:04;;;;;;;15.97;5.27;;;;;;;-143.21;79.86;71292.94;4961015;28;20201;-84
2023/10/27 04:10:31;;;;;;;13.83;5.30;;;;;;;-143.21;80.11;71296.91;4964357;28;21337;-84
2023/10/27 04:13:00;;;;;;;17.13;5.60;;;;;;;-143.21;79.64;71273.13;4973898;28;20213;-84
2023/10/27 04:15:27;;;;;;;13.27;5.13;;;;;;;-143.21;79.73;71292.94;4969978;28;20211;-84
2023/10/27 04:17:53;;;;;;;13.37;5.00;;;;;;;-143.21;79.80;71285.03;4970754;28;20559;-84
2023/10/27 04:20:20;;;;;;;14.67;5.23;;;;;;;-143.21;80.46;71296.91;4974021;28;20209;-83
2023/10/27 04:22:47;;;;;;;15.40;5.10;;;;;;;-143.21;80.36;71281.06;4970255;28;20200;-84
2023/10/27 04:25:15;;;;;;;12.60;4.87;;;;;;;-143.21;80.59;71281.06;4970065;28;20213;-84
2023/10/27 04:27:41;;;;;;;15.20;5.50;;;;;;;-143.21;80.18;71281.06;4972987;28;20271;-82
2023/10/27 04:30:11;;;;;;;18.07;5.30;;;;;;;-143.21;80.12;71275.09;4970512;28;20295;-86
2023/10/27 04:32:39;;;;;;;20.93;5.60;;;;;;;-143.21;80.47;71281.06;4973935;28;20201;-90
2023/10/27 04:35:07;;;;;;;16.73;5.67;;;;;;;-143.21;80.81;71279.06;4975064;28;20320;-90
2023/10/27 04:37:34;;;;;;;24.17;8.03;;;;;;;-143.21;80.57;71283.03;4974941;28;20204;-90
2023/10/27 04:40:01;;;;;;;13.43;5.63;;;;;;;-143.21;80.29;71285.03;4974519;28;20585;-90
2023/10/27 04:42:29;;;;;;;10.17;5.07;;;;;;;-143.21;80.17;71275.09;4975200;28;20231;-92
2023/10/27 04:45:50;;;;;;;9.27;5.07;;;;;;;-143.21;80.31;71281.06;4974720;28;20204;-92
2023/10/27 04:48:18;;;;;;;15.47;5.27;;;;;;;-143.21;80.10;71285.03;4974131;28;20586;-92
2023/10/27 04:50:45;;;;;;;15.67;6.20;;;;;;;-143.21;79.90;71269.16;4973399;28;20211;-88
2023/10/27 04:53:12;;;;;;;15.03;5.63;;;;;;;-143.21;80.21;71287.00;4974050;28;20200;-87
2023/10/27 04:55:58;;;;;;;15.97;6.10;;;;;;;-143.21;80.06;71273.13;4972216;28;20204;-87
2023/10/27 04:58:25;;;;;;;17.00;6.10;;;;;;;-143.21;80.78;71288.97;4972859;28;20629;-87
2023/10/27 05:00:52;;;;;;;16.50;6.00;;;;;;;-143.21;80.63;71279.06;4973957;28;20573;-85
2023/10/27 05:03:20;;;;;;;15.70;5.77;;;;;;;-143.21;80.60;71273.13;4972316;28;20201;-85
2023/10/27 05:05:47;;;;;;;17.10;5.53;;;;;;;-143.21;80.49;71263.22;4972604;28;20205;-86
2023/10/27 05:08:15;;;;;;;16.00;5.90;;;;;;;-143.21;80.70;71261.22;4973799;28;20212;-87
2023/10/27 05:10:42;;;;;;;17.13;5.90;;;;;;;-143.21;80.71;71261.22;4971278;28;20276;-86
2023/10/27 05:13:09;;;;;;;13.70;5.73;;;;;;;-143.21;80.16;71259.25;4973022;28;20197;-86
2023/10/27 05:15:38;;;;;;;17.00;5.00;;;;;;;-143.21;80.21;71253.28;4973260;28;20216;-87
2023/10/27 05:18:05;;;;;;;11.97;5.70;;;;;;;-143.21;80.26;71267.19;4973192;28;20564;-86
2023/10/27 05:20:38;;;;;;;18.73;5.37;;;;;;;-143.21;80.05;71249.34;4973712;28;20248;-86
2023/10/27 05:23:05;;;;;;;13.23;5.70;;;;;;;-143.21;80.01;71251.31;4975016;28;20591;-88
2023/10/27 05:25:32;;;;;;;13.47;5.30;;;;;;;-143.21;79.99;71243.38;4973863;28;20200;-87
2023/10/27 05:28:00;;;;;;;25.07;6.40;;;;;;;-143.21;79.29;71235.44;4972362;28;20216;-85
2023/10/27 05:30:27;;;;;;;17.20;5.33;;;;;;;-143.21;79.21;71231.50;4971569;28;20228;-87
2023/10/27 05:33:08;;;;;;;13.03;5.67;;;;;;;-143.21;79.08;71237.44;4972285;28;20624;-87
2023/10/27 05:35:36;;;;;;;17.20;5.50;;;;;;;-143.21;79.32;71233.47;4971840;28;20217;-86
2023/10/27 05:38:04;;;;;;;14.67;5.13;;;;;;;-143.21;78.79;71219.59;4973376;28;20197;-88
2023/10/27 05:40:33;;;;;;;20.67;5.53;;;;;;;-143.21;78.58;71215.63;4973765;28;20200;-88
2023/10/27 05:43:03;;;;;;;15.70;5.70;;;;;;;-143.21;78.48;71215.63;4972335;28;20275;-85
2023/10/27 05:45:30;;;;;;;17.97;5.97;;;;;;;-143.21;78.33;71223.56;4972852;28;20209;-85
2023/10/27 05:47:57;;;;;;;14.67;5.57;;;;;;;-143.21;77.84;71205.72;4972257;28;20645;-86
2023/10/27 05:50:24;;;;;;;15.17;5.77;;;;;;;-143.21;77.76;71211.66;4972477;28;20217;-87
2023/10/27 05:52:52;;;;;;;16.03;5.53;;;;;;;-143.21;77.52;71203.72;4972671;28;20229;-87
2023/10/27 05:55:19;;;;;;;18.93;6.10;;;;;;;-143.21;77.43;71209.69;4972918;28;20248;-87
2023/10/27 05:57:46;;;;;;;18.23;5.50;;;;;;;-143.21;77.58;71217.59;4971564;28;20204;-88
2023/10/27 06:00:16;;;;;;;15.40;5.80;;;;;;;-143.21;77.31;71219.59;4972682;28;21133;-89
2023/10/27 06:02:42;;;;;;;25.10;5.87;;;;;;;-143.21;76.86;71219.59;4973985;28;20201;-90
2023/10/27 06:05:40;;;;;;;17.20;5.87;;;;;;;-143.21;76.93;71217.59;4973573;28;20209;-88
2023/10/27 06:08:09;;;;;;;18.23;6.00;;;;;;;-143.21;76.98;71209.69;4973625;28;20201;-89
2023/10/27 06:10:37;;;;;;;20.57;6.20;;;;;;;-143.21;77.02;71191.84;4974298;28;20193;-91
2023/10/27 06:13:05;;;;;;;25.73;6.60;;;;;;;-143.21;76.51;71179.94;4973953;28;20656;-87
2023/10/27 06:15:31;;;;;;;15.93;5.97;;;;;;;-143.21;76.30;71189.84;4971705;28;20599;-86
2023/10/27 06:17:58;;;;;;;18.70;6.13;;;;;;;-143.21;76.58;71191.84;4972911;28;20204;-87
2023/10/27 06:20:25;;;;;;;19.57;6.40;;;;;;;-143.21;76.19;71172.00;4972226;28;20213;-88
2023/10/27 06:23:02;;;;;;;17.93;6.40;;;;;;;-143.21;76.21;71166.06;4971441;28;20675;-88
2023/10/27 06:25:30;;;;;;;18.83;6.27;;;;;;;-143.21;75.89;71166.06;4973336;28;20236;-88
2023/10/27 06:27:57;;;;;;;21.47;6.57;;;;;;;-143.21;75.46;71154.16;4973147;28;20219;-88
2023/10/27 06:30:27;;;;;;;20.00;6.20;;;;;;;-143.21;75.21;71158.13;4977545;28;20232;-89
2023/10/27 06:33:27;;;;;;;17.80;6.30;;;;;;;-143.21;75.12;71150.22;4981084;28;20208;-91
2023/10/27 06:36:10;;;;;;;16.80;4.90;;;;;;;-143.21;74.60;71124.44;4963030;28;20217;-90
2023/10/27 06:38:37;;;;;;;9.50;4.50;;;;;;;-143.21;73.02;71138.31;4973689;28;20211;-89
2023/10/27 06:41:08;;;;;;;16.87;5.13;;;;;;;-143.21;73.24;71124.44;4979697;28;20203;-87
2023/10/27 06:43:35;;;;;;;13.13;4.87;;;;;;;-143.21;73.33;71126.41;4977079;28;20204;-88
2023/10/27 06:46:05;;;;;;;17.00;5.47;;;;;;;-143.21;73.63;71130.38;4980606;28;20205;-85
2023/10/27 06:48:35;;;;;;;14.17;5.17;;;;;;;-143.21;73.61;71124.44;4978327;28;20275;-86
2023/10/27 06:51:05;;;;;;;18.90;6.20;;;;;;;-143.21;72.83;71104.59;4978925;28;20267;-89
2023/10/27 06:53:34;;;;;;;20.07;7.07;;;;;;;-143.21;72.83;71120.47;4977263;28;20213;-85
2023/10/27 06:56:01;;;;;;;19.63;5.97;;;;;;;-143.21;72.75;71108.56;4979734;28;20224;-90
2023/10/27 06:58:30;;;;;;;21.17;6.63;;;;;;;-143.21;72.47;71100.66;4979274;28;20201;-90
2023/10/27 07:01:06;;;;;;;22.70;6.40;;;;;;;-143.21;71.91;71080.81;4978431;28;20211;-88
2023/10/27 07:03:50;;;;;;;18.80;6.53;;;;;;;-143.21;71.74;71074.88;4978086;28;20737;-89
2023/10/27 07:06:44;;;;;;;14.35;6.65;;;;;;;-143.21;71.73;71080.81;4974336;28;20199;-89
2023/10/27 07:09:11;;;;;;;27.85;7.30;;;;;;;-143.21;71.51;71080.81;4965099;28;20237;-88
2023/10/27 07:11:42;;;;;;;22.63;6.47;;;;;;;-143.21;71.07;71066.94;4976048;28;20215;-89
2023/10/27 07:14:14;;;;;;;16.80;6.47;;;;;;;-143.21;71.21;71061.00;4976073;28;20541;-88
2023/10/27 07:16:41;;;;;;;16.40;6.28;;;;;;;-143.21;70.60;71049.09;4976879;28;20219;-87
2023/10/27 07:19:08;;;;;;;17.23;6.80;;;;;;;-143.21;70.18;71037.22;4976847;28;20213;-89
2023/10/27 07:21:35;;;;;;;20.88;6.40;;;;;;;-143.21;69.85;71049.09;4977610;28;20680;-90
2023/10/27 07:24:02;;;;;;;25.55;7.00;;;;;;;-143.21;69.86;71049.09;4979258;28;20197;-89
2023/10/27 07:26:29;;;;;;;22.10;7.65;;;;;;;-143.21;70.70;71057.03;4980168;28;20217;-91
2023/10/27 07:28:56;;;;;;;28.02;7.28;;;;;;;-143.21;70.84;71055.06;4977487;28;20232;-87
2023/10/27 07:31:25;;;;;;;29.13;8.10;;;;;;;-143.21;70.31;71041.16;4978936;28;20252;-89
2023/10/27 07:33:52;;;;;;;27.02;7.22;;;;;;;-143.21;70.78;71025.31;4976686;28;20248;-89
2023/10/27 07:36:31;;;;;;;17.90;7.20;;;;;;;-143.21;70.48;71023.34;4977730;28;20209;-90
2023/10/27 07:39:09;;;;;;;20.08;7.20;;;;;;;-143.21;70.21;71025.31;4982462;28;20231;-91
2023/10/27 07:41:38;;;;;;;22.67;7.47;;;;;;;-143.21;69.96;71023.34;4985607;28;20239;-91
2023/10/27 07:44:06;;;;;;;21.02;7.95;;;;;;;-143.21;69.71;71031.25;4976136;28;20216;-89
2023/10/27 07:46:37;;;;;;;22.02;8.38;;;;;;;-143.21;69.85;71035.22;4985821;28;20221;-90
2023/10/27 07:49:09;;;;;;;22.60;8.32;;;;;;;-143.21;69.95;71031.25;4979037;28;20211;-90
2023/10/27 07:51:41;;;;;;;19.80;7.40;;;;;;;-143.21;69.60;71025.31;4971566;28;20615;-89
2023/10/27 07:54:08;;;;;;;37.08;8.13;;;;;;;-143.21;69.51;71007.47;4982363;28;20228;-90
2023/10/27 07:56:42;;;;;;;23.92;7.93;;;;;;;-143.21;68.96;71013.41;4983387;28;20232;-90
2023/10/27 07:59:09;;;;;;;23.70;7.30;;;;;;;-143.21;68.05;70981.69;4979388;28;20220;-88
2023/10/27 08:01:58;;;;;;;20.45;6.55;;;;;;;-143.21;67.71;70965.84;4982364;28;20237;-90
2023/10/27 08:04:38;;;;;;;18.70;7.22;;;;;;;-143.21;67.80;70971.78;4986120;28;20637;-88
2023/10/27 08:07:06;;;;;;;27.63;8.27;;;;;;;-143.21;67.48;70953.94;4977445;28;20726;-87
2023/10/27 08:09:33;;;;;;;17.45;6.85;;;;;;;-143.21;66.75;70940.06;4980797;28;20222;-90
2023/10/27 08:12:00;;;;;;;17.27;6.57;;;;;;;-143.21;66.84;70924.22;4979855;28;21092;-87
2023/10/27 08:14:27;;;;;;;58.25;11.00;;;;;;;-143.21;66.66;70920.25;4981758;28;20207;-84
2023/10/27 08:17:08;;;;;;;29.80;8.60;;;;;;;-143.21;66.19;70908.34;4970986;28;20211;-86
2023/10/27 08:19:35;;;;;;;19.98;7.55;;;;;;;-143.21;65.94;70884.56;4972645;28;20217;-86
2023/10/27 08:22:02;;;;;;;21.15;7.30;;;;;;;-143.21;65.29;70862.75;4983789;28;20212;-85
2023/10/27 08:24:30;;;;;;;17.95;6.78;;;;;;;-143.21;63.59;70840.97;4975652;28;20278;-88
2023/10/27 08:26:57;;;;;;;22.58;6.85;;;;;;;-143.21;62.48;70837.00;4979696;28;20303;-90
2023/10/27 08:29:26;;;;;;;15.00;6.80;;;;;;;-143.21;62.59;70827.06;4980560;28;20239;-88
2023/10/27 08:31:53;;;;;;;22.05;6.45;;;;;;;-143.21;62.36;70807.25;4973118;28;20204;-88
2023/10/27 08:34:21;;;;;;;20.30;6.35;;;;;;;-143.21;62.36;70797.34;4975310;28;21014;-88
2023/10/27 08:36:57;;;;;;;16.42;5.40;;;;;;;-143.21;62.46;70781.50;4977944;28;20200;-90
2023/10/27 08:39:42;;;;;;;21.67;7.63;;;;;;;-143.21;62.10;70773.56;4973082;28;20258;-88
2023/10/27 08:42:10;;;;;;;13.25;5.97;;;;;;;-143.21;60.83;70765.63;4970707;28;20205;-88
2023/10/27 08:44:39;;;;;;;10.80;5.55;;;;;;;-143.21;60.38;70759.69;4979375;28;20215;-87
2023/10/27 08:47:09;;;;;;;20.45;5.40;;;;;;;-143.21;59.95;70739.84;4972615;28;20204;-89
2023/10/27 08:49:46;;;;;;;12.63;4.57;;;;;;;-143.21;58.33;70729.94;4976446;28;20634;-89
2023/10/27 08:52:15;;;;;;;7.82;3.95;;;;;;;-143.21;56.31;70712.09;4970275;28;20287;-87
2023/10/27 08:54:48;;;;;;;4.40;1.92;;;;;;;-143.21;53.73;70692.28;4969323;28;20209;-89
2023/10/27 08:57:16;;;;;;;7.32;2.15;;;;;;;-143.21;53.62;70688.31;4968674;28;20209;-88
2023/10/27 08:59:50;;;;;;;6.07;2.22;;;;;;;-143.21;53.44;70672.47;4977950;28;20207;-88
2023/10/27 09:02:29;;;;;;;6.80;2.38;;;;;;;-143.21;53.04;70662.56;4976004;28;20287;-86
2023/10/27 09:05:04;;;;;;;6.43;2.28;;;;;;;-143.21;52.35;70654.63;4972628;28;20210;-89
2023/10/27 09:07:32;;;;;;;6.28;1.83;;;;;;;-143.21;51.64;70652.66;4991679;28;20320;-85
2023/10/27 09:09:59;;;;;;;9.00;2.15;;;;;;;-143.21;51.93;70642.72;4994493;28;20212;-88
2023/10/27 09:12:28;;;;;;;10.85;1.80;;;;;;;-143.21;51.61;70622.91;4980238;28;20213;-87
2023/10/27 09:15:04;;;;;;;6.78;1.90;;;;;;;-143.21;51.17;70628.84;4985743;28;20200;-87
2023/10/27 09:17:31;;;;;;;9.27;2.03;;;;;;;-143.21;50.97;70589.22;4982577;28;20220;-88
2023/10/27 09:20:07;;;;;;;10.48;2.40;;;;;;;-143.21;50.73;70569.38;4978761;28;20206;-88
2023/10/27 09:22:34;;;;;;;7.85;2.05;;;;;;;-143.21;50.33;70529.75;4981103;28;20628;-88
2023/10/27 09:25:14;;;;;;;5.38;2.00;;;;;;;-143.21;49.21;70494.06;4987544;28;20214;-88
2023/10/27 09:27:45;;;;;;;3.80;1.85;;;;;;;-143.21;48.84;70496.06;4979002;28;20230;-88
2023/10/27 09:30:14;;;;;;;6.30;1.92;;;;;;;-143.21;48.67;70472.25;4968032;28;20232;-86
2023/10/27 09:32:42;;;;;;;5.10;2.00;;;;;;;-143.21;48.03;70450.47;4981972;28;20271;-86
2023/10/27 09:35:14;;;;;;;6.85;1.77;;;;;;;-143.21;47.95;70442.53;4979002;28;20199;-88
2023/10/27 09:37:42;;;;;;;6.93;1.88;;;;;;;-143.21;48.05;70428.66;4971016;28;20228;-87
2023/10/27 09:40:11;;;;;;;6.43;1.67;;;;;;;-143.21;47.95;70414.78;4973748;28;20203;-87
2023/10/27 09:42:38;;;;;;;4.60;2.25;;;;;;;-143.21;47.69;70394.97;4980272;28;20691;-86
2023/10/27 09:45:11;;;;;;;4.57;1.70;;;;;;;-143.21;47.04;70392.97;4984349;28;20818;-88
2023/10/27 09:47:45;;;;;;;6.18;1.90;;;;;;;-143.21;47.02;70385.06;4975269;28;20220;-88
2023/10/27 09:50:16;;;;;;;5.43;1.73;;;;;;;-143.21;46.93;70383.06;4981101;28;20200;-84
2023/10/27 09:52:44;;;;;;;5.05;2.00;;;;;;;-143.21;46.78;70361.28;4972779;28;20200;-86
2023/10/27 09:55:17;;;;;;;5.50;2.00;;;;;;;-143.21;46.53;70363.25;4976425;28;20224;-88
2023/10/27 09:57:45;;;;;;;5.38;2.20;;;;;;;-143.21;46.74;70365.25;4973705;28;20225;-87
2023/10/27 10:00:15;;;;;;;9.23;2.33;;;;;;;-143.21;46.75;70361.28;4980993;28;20592;-87
2023/10/27 10:02:45;;;;;;;4.38;2.05;;;;;;;-143.21;47.05;70365.25;4968456;28;20564;-87
2023/10/27 10:05:15;;;;;;;4.25;2.22;;;;;;;-143.21;46.45;70355.31;4977719;28;20201;-85
2023/10/27 10:07:44;;;;;;;3.60;1.60;;;;;;;-143.21;46.43;70347.41;4976424;28;22186;-85
2023/10/27 10:10:24;;;;;;;6.32;1.75;;;;;;;-143.21;46.76;70389.03;4974632;28;20653;-86
2023/10/27 10:13:05;;;;;;;6.50;2.35;;;;;;;-143.21;47.03;70383.06;4981247;28;20227;-87
2023/10/27 10:15:33;;;;;;;11.30;2.08;;;;;;;-143.21;46.69;70414.78;4967014;28;20212;-87
2023/10/27 10:18:01;;;;;;;4.13;1.85;;;;;;;-143.21;46.84;70430.66;4975600;28;20235;-86
2023/10/27 10:21:04;;;;;;;10.13;1.90;;;;;;;-143.21;47.32;70446.50;4978239;28;20209;-87
2023/10/27 10:24:17;;;;;;;5.90;1.70;;;;;;;-143.21;47.46;70442.53;4973314;28;20296;-88
2023/10/27 10:27:13;;;;;;;5.15;1.92;;;;;;;-143.21;47.50;70452.44;4983446;28;20729;-86
2023/10/27 10:29:40;;;;;;;7.35;1.92;;;;;;;-143.21;47.32;70454.44;4953032;28;20266;-88
2023/10/27 10:32:29;;;;;;;7.80;1.80;;;;;;;-143.21;47.44;70450.47;4986228;28;20251;-87
2023/10/27 10:35:22;;;;;;;8.77;2.10;;;;;;;-143.21;47.37;70458.41;4980984;28;20204;-87
2023/10/27 10:37:51;;;;;;;13.07;2.10;;;;;;;-143.21;47.48;70436.59;4981105;28;20240;-86
2023/10/27 10:40:22;;;;;;;6.13;1.88;;;;;;;-143.21;46.75;70400.91;4976393;28;20204;-87
2023/10/27 10:43:33;;;;;;;5.53;2.00;;;;;;;-143.21;45.87;70385.06;4976953;28;20213;-86
2023/10/27 10:46:06;;;;;;;5.88;1.50;;;;;;;-143.21;45.84;70373.16;4978998;28;20399;-88
2023/10/27 10:48:35;;;;;;;5.78;1.90;;;;;;;-143.21;45.59;70377.13;4971521;28;20240;-88
2023/10/27 10:51:11;;;;;;;7.35;2.05;;;;;;;-143.21;45.61;70383.06;4977495;28;20244;-88
2023/10/27 10:53:38;;;;;;;7.43;1.90;;;;;;;-143.21;45.63;70383.06;4968247;28;20227;-88
2023/10/27 10:56:06;;;;;;;5.82;1.70;;;;;;;-143.21;45.72;70373.16;4975355;28;20655;-87
2023/10/27 10:58:36;;;;;;;7.55;2.20;;;;;;;-143.21;45.73;70387.03;4971869;28;21590;-86
2023/10/27 11:01:04;;;;;;;9.95;1.80;;;;;;;-143.21;45.69;70389.03;4977013;28;20212;-85
2023/10/27 11:03:33;;;;;;;8.18;1.77;;;;;;;-143.21;45.69;70389.03;4982267;28;20219;-86
2023/10/27 11:06:01;;;;;;;6.50;1.85;;;;;;;-143.21;46.07;70387.03;4971045;28;20212;-86
2023/10/27 11:08:29;;;;;;;10.75;2.15;;;;;;;-143.21;45.95;70400.91;4964489;28;20225;-85
2023/10/27 11:11:04;;;;;;;10.63;2.10;;;;;;;-143.21;46.39;70406.84;4972246;28;20205;-85
2023/10/27 11:13:33;;;;;;;4.57;1.80;;;;;;;-143.21;46.45;70416.78;4973440;28;20212;-87
2023/10/27 11:16:01;;;;;;;6.03;1.85;;;;;;;-143.21;46.93;70408.84;4982125;28;21367;-86
2023/10/27 11:18:31;;;;;;;4.90;1.70;;;;;;;-143.21;47.18;70416.78;4984014;28;20206;-86
2023/10/27 11:20:58;;;;;;;4.15;1.83;;;;;;;-143.21;47.48;70420.72;4981472;28;20715;-85
2023/10/27 11:23:28;;;;;;;5.68;2.00;;;;;;;-143.21;47.56;70406.84;4980164;28;20200;-86
2023/10/27 11:26:02;;;;;;;7.63;1.80;;;;;;;-143.21;47.13;70402.91;4981316;28;20200;-87